Charleston Executive Airport


Codes: KJZI/
Name: Charleston Executive Airport
City: Charleston
Country: United States
Elevation: 17 ft.

Photos at Charleston Executive Airport


   Photos courtesy of SpottingLog. You can add your own sightings and photos by signing up for a free trial today.



No photos found.

Weather at Charleston Executive Airport


Time (UTC)DescriptionTempratureWindCloud coverageVisibilityPressureHumidity
25-Jun-2024 15:00Clear Sky29°C7 mph, S0%10000m1013hPa78%
25-Jun-2024 18:00Clear Sky31°C13 mph, S3%10000m1014hPa65%
25-Jun-2024 21:00Light Rain28°C11 mph, SE76%10000m1013hPa73%
26-Jun-2024 00:00Light Rain28°C11 mph, S70%10000m1012hPa78%
26-Jun-2024 03:00Clear Sky26°C7 mph, S10%10000m1014hPa89%
26-Jun-2024 06:00Clear Sky26°C7 mph, S6%10000m1014hPa91%
26-Jun-2024 09:00Clear Sky26°C7 mph, S5%10000m1013hPa93%
26-Jun-2024 12:00Light Rain28°C7 mph, S2%10000m1014hPa79%
26-Jun-2024 15:00Clear Sky31°C9 mph, S0%10000m1013hPa59%
26-Jun-2024 18:00Clear Sky32°C11 mph, S0%10000m1013hPa57%
26-Jun-2024 21:00Clear Sky30°C13 mph, S1%10000m1010hPa64%
27-Jun-2024 00:00Light Rain28°C9 mph, S2%10000m1011hPa80%
27-Jun-2024 03:00Clear Sky27°C13 mph, S3%10000m1010hPa85%
27-Jun-2024 06:00Clear Sky26°C9 mph, SW2%10000m1010hPa84%
27-Jun-2024 09:00Scattered Clouds25°C9 mph, W36%10000m1009hPa78%
27-Jun-2024 12:00Broken Clouds26°C7 mph, W54%10000m1010hPa70%
27-Jun-2024 15:00Scattered Clouds31°C9 mph, SW25%10000m1010hPa56%
27-Jun-2024 18:00Few Clouds31°C13 mph, S15%10000m1010hPa57%
27-Jun-2024 21:00Scattered Clouds30°C11 mph, S38%10000m1009hPa62%
28-Jun-2024 00:00Scattered Clouds27°C9 mph, S29%10000m1010hPa81%
28-Jun-2024 03:00Broken Clouds27°C11 mph, S51%10000m1010hPa85%
28-Jun-2024 06:00Broken Clouds27°C9 mph, S56%10000m1011hPa83%
28-Jun-2024 09:00Few Clouds26°C4 mph, S20%10000m1011hPa92%
28-Jun-2024 12:00Light Rain28°C7 mph, SW10%10000m1013hPa77%
28-Jun-2024 15:00Clear Sky32°C7 mph, SE1%10000m1014hPa56%
28-Jun-2024 18:00Clear Sky32°C11 mph, SE2%10000m1014hPa56%
28-Jun-2024 21:00Clear Sky31°C11 mph, SE8%10000m1014hPa63%
29-Jun-2024 00:00Clear Sky28°C11 mph, SE5%10000m1014hPa80%
29-Jun-2024 03:00Light Rain27°C7 mph, SE3%10000m1017hPa89%
29-Jun-2024 06:00Few Clouds26°C7 mph, SE19%10000m1017hPa92%
29-Jun-2024 09:00Clear Sky26°C7 mph, SE3%10000m1016hPa94%
29-Jun-2024 12:00Broken Clouds28°C7 mph, SE56%10000m1018hPa81%
29-Jun-2024 15:00Scattered Clouds31°C9 mph, SE35%10000m1019hPa64%
29-Jun-2024 18:00Scattered Clouds31°C9 mph, SE36%10000m1019hPa61%
29-Jun-2024 21:00Scattered Clouds31°C11 mph, SE50%10000m1018hPa63%
30-Jun-2024 00:00Broken Clouds28°C9 mph, S72%10000m1018hPa78%
30-Jun-2024 03:00Few Clouds27°C9 mph, S14%10000m1019hPa86%
30-Jun-2024 06:00Few Clouds26°C9 mph, S18%10000m1019hPa87%
30-Jun-2024 09:00Overcast Clouds26°C7 mph, SW100%10000m1019hPa90%
30-Jun-2024 12:00Overcast Clouds27°C7 mph, S100%10000m1019hPa81%